sensor_id;sensor_type;location;lat;lon;timestamp;pressure;altitude;pressure_sealevel;temperature;humidity
76858;BME280;65830;0.000;0.000;2023-03-04T00:02:13;99910.00;;;5.54;72.91
76858;BME280;65830;0.000;0.000;2023-03-04T00:04:39;99913.78;;;5.50;72.92
76858;BME280;65830;0.000;0.000;2023-03-04T00:07:04;99913.78;;;5.50;72.85
76858;BME280;65830;0.000;0.000;2023-03-04T00:09:30;99908.63;;;5.48;72.38
76858;BME280;65830;0.000;0.000;2023-03-04T00:11:55;99900.28;;;5.42;72.75
76858;BME280;65830;0.000;0.000;2023-03-04T00:14:20;99898.59;;;5.41;73.35
76858;BME280;65830;0.000;0.000;2023-03-04T00:16:46;99898.94;;;5.49;73.29
76858;BME280;65830;0.000;0.000;2023-03-04T00:19:13;99892.09;;;5.46;73.28
76858;BME280;65830;0.000;0.000;2023-03-04T00:21:39;99897.34;;;5.46;72.94
76858;BME280;65830;0.000;0.000;2023-03-04T00:24:05;99897.44;;;5.45;72.77
76858;BME280;65830;0.000;0.000;2023-03-04T00:26:31;99896.69;;;5.43;72.86
76858;BME280;65830;0.000;0.000;2023-03-04T00:28:56;99906.06;;;5.34;73.02
76858;BME280;65830;0.000;0.000;2023-03-04T00:31:22;99904.75;;;5.27;73.33
76858;BME280;65830;0.000;0.000;2023-03-04T00:33:47;99903.81;;;5.28;73.13
76858;BME280;65830;0.000;0.000;2023-03-04T00:36:13;99905.50;;;5.29;73.55
76858;BME280;65830;0.000;0.000;2023-03-04T00:38:38;99905.09;;;5.35;73.38
76858;BME280;65830;0.000;0.000;2023-03-04T00:41:04;99896.91;;;5.40;73.11
76858;BME280;65830;0.000;0.000;2023-03-04T00:43:29;99893.97;;;5.44;73.08
76858;BME280;65830;0.000;0.000;2023-03-04T00:45:56;99888.72;;;5.44;72.86
76858;BME280;65830;0.000;0.000;2023-03-04T00:48:22;99883.94;;;5.36;72.57
76858;BME280;65830;0.000;0.000;2023-03-04T00:50:47;99884.78;;;5.37;72.93
76858;BME280;65830;0.000;0.000;2023-03-04T00:53:15;99895.84;;;5.29;72.62
76858;BME280;65830;0.000;0.000;2023-03-04T00:55:42;99887.81;;;5.31;73.02
76858;BME280;65830;0.000;0.000;2023-03-04T00:58:07;99888.13;;;5.26;73.15
76858;BME280;65830;0.000;0.000;2023-03-04T01:00:33;99901.09;;;5.29;73.30
76858;BME280;65830;0.000;0.000;2023-03-04T01:02:59;99895.94;;;5.28;73.00
76858;BME280;65830;0.000;0.000;2023-03-04T01:05:24;99887.00;;;5.30;73.23
76858;BME280;65830;0.000;0.000;2023-03-04T01:07:50;99900.78;;;5.34;73.26
76858;BME280;65830;0.000;0.000;2023-03-04T01:10:15;99889.69;;;5.43;73.20
76858;BME280;65830;0.000;0.000;2023-03-04T01:12:41;99892.31;;;5.43;73.13
76858;BME280;65830;0.000;0.000;2023-03-04T01:15:11;99890.59;;;5.42;72.79
76858;BME280;65830;0.000;0.000;2023-03-04T01:17:38;99889.31;;;5.35;72.94
76858;BME280;65830;0.000;0.000;2023-03-04T01:20:04;99887.41;;;5.37;72.59
76858;BME280;65830;0.000;0.000;2023-03-04T01:22:30;99880.66;;;5.33;72.67
76858;BME280;65830;0.000;0.000;2023-03-04T01:24:56;99880.47;;;5.36;73.18
76858;BME280;65830;0.000;0.000;2023-03-04T01:27:21;99876.88;;;5.37;73.11
76858;BME280;65830;0.000;0.000;2023-03-04T01:29:48;99884.03;;;5.35;73.13
76858;BME280;65830;0.000;0.000;2023-03-04T01:32:14;99875.22;;;5.36;73.22
76858;BME280;65830;0.000;0.000;2023-03-04T01:34:40;99878.50;;;5.40;73.06
76858;BME280;65830;0.000;0.000;2023-03-04T01:37:06;99873.34;;;5.38;73.39
76858;BME280;65830;0.000;0.000;2023-03-04T01:39:31;99876.22;;;5.48;73.33
76858;BME280;65830;0.000;0.000;2023-03-04T01:41:57;99872.00;;;5.45;73.22
76858;BME280;65830;0.000;0.000;2023-03-04T01:44:23;99877.03;;;5.48;73.02
76858;BME280;65830;0.000;0.000;2023-03-04T01:46:49;99868.97;;;5.51;72.63
76858;BME280;65830;0.000;0.000;2023-03-04T01:49:16;99864.84;;;5.47;72.32
76858;BME280;65830;0.000;0.000;2023-03-04T01:51:42;99870.28;;;5.44;72.39
76858;BME280;65830;0.000;0.000;2023-03-04T01:54:08;99865.13;;;5.43;72.82
76858;BME280;65830;0.000;0.000;2023-03-04T01:56:34;99868.06;;;5.38;72.74
76858;BME280;65830;0.000;0.000;2023-03-04T02:01:32;99856.25;;;5.31;72.90
76858;BME280;65830;0.000;0.000;2023-03-04T02:03:58;99864.03;;;5.32;73.38
76858;BME280;65830;0.000;0.000;2023-03-04T02:06:23;99870.69;;;5.38;72.80
76858;BME280;65830;0.000;0.000;2023-03-04T02:08:49;99868.06;;;5.38;72.79
76858;BME280;65830;0.000;0.000;2023-03-04T02:11:14;99859.34;;;5.37;72.67
76858;BME280;65830;0.000;0.000;2023-03-04T02:13:40;99854.25;;;5.34;73.10
76858;BME280;65830;0.000;0.000;2023-03-04T02:16:06;99865.84;;;5.32;73.50
76858;BME280;65830;0.000;0.000;2023-03-04T02:18:31;99842.69;;;5.37;72.99
76858;BME280;65830;0.000;0.000;2023-03-04T02:28:36;99845.88;;;5.42;72.87
76858;BME280;65830;0.000;0.000;2023-03-04T02:31:02;99853.75;;;5.42;73.61
76858;BME280;65830;0.000;0.000;2023-03-04T02:33:27;99839.69;;;5.43;73.17
76858;BME280;65830;0.000;0.000;2023-03-04T02:35:53;99846.19;;;5.50;73.18
76858;BME280;65830;0.000;0.000;2023-03-04T02:38:19;99829.81;;;5.60;72.70
76858;BME280;65830;0.000;0.000;2023-03-04T02:40:45;99824.31;;;5.63;72.36
76858;BME280;65830;0.000;0.000;2023-03-04T02:43:13;99834.22;;;5.59;72.31
76858;BME280;65830;0.000;0.000;2023-03-04T02:48:06;99836.13;;;5.57;71.75
76858;BME280;65830;0.000;0.000;2023-03-04T02:50:33;99834.94;;;5.48;72.08
76858;BME280;65830;0.000;0.000;2023-03-04T02:52:59;99830.31;;;5.52;72.36
76858;BME280;65830;0.000;0.000;2023-03-04T02:55:24;99830.41;;;5.37;72.08
76858;BME280;65830;0.000;0.000;2023-03-04T02:57:50;99828.78;;;5.35;72.90
76858;BME280;65830;0.000;0.000;2023-03-04T03:00:16;99833.22;;;5.34;72.57
76858;BME280;65830;0.000;0.000;2023-03-04T03:02:41;99834.38;;;5.30;73.10
76858;BME280;65830;0.000;0.000;2023-03-04T03:05:07;99838.97;;;5.27;72.92
76858;BME280;65830;0.000;0.000;2023-03-04T03:07:33;99820.94;;;5.08;72.98
76858;BME280;65830;0.000;0.000;2023-03-04T03:10:00;99848.84;;;5.23;72.77
76858;BME280;65830;0.000;0.000;2023-03-04T03:12:25;99854.97;;;5.24;72.85
76858;BME280;65830;0.000;0.000;2023-03-04T03:14:51;99849.91;;;5.21;73.00
76858;BME280;65830;0.000;0.000;2023-03-04T03:17:19;99857.63;;;5.24;73.54
76858;BME280;65830;0.000;0.000;2023-03-04T03:19:45;99858.53;;;5.23;72.55
76858;BME280;65830;0.000;0.000;2023-03-04T03:22:12;99862.88;;;5.24;73.15
76858;BME280;65830;0.000;0.000;2023-03-04T03:24:38;99864.63;;;5.23;73.02
76858;BME280;65830;0.000;0.000;2023-03-04T03:27:04;99864.94;;;5.18;72.65
76858;BME280;65830;0.000;0.000;2023-03-04T03:29:29;99858.28;;;5.13;72.83
76858;BME280;65830;0.000;0.000;2023-03-04T03:31:55;99866.50;;;5.08;72.98
76858;BME280;65830;0.000;0.000;2023-03-04T03:34:21;99868.56;;;5.03;73.27
76858;BME280;65830;0.000;0.000;2023-03-04T03:36:47;99863.22;;;5.05;73.21
76858;BME280;65830;0.000;0.000;2023-03-04T03:39:13;99862.38;;;5.04;72.59
76858;BME280;65830;0.000;0.000;2023-03-04T03:41:40;99863.50;;;5.00;72.72
76858;BME280;65830;0.000;0.000;2023-03-04T03:44:05;99862.78;;;4.98;72.56
76858;BME280;65830;0.000;0.000;2023-03-04T03:46:31;99864.31;;;4.88;73.11
76858;BME280;65830;0.000;0.000;2023-03-04T03:48:56;99865.03;;;4.90;72.39
76858;BME280;65830;0.000;0.000;2023-03-04T03:51:22;99861.75;;;4.86;72.66
76858;BME280;65830;0.000;0.000;2023-03-04T03:53:47;99865.22;;;4.87;72.65
76858;BME280;65830;0.000;0.000;2023-03-04T03:56:13;99863.75;;;4.83;72.92
76858;BME280;65830;0.000;0.000;2023-03-04T03:58:38;99869.94;;;4.82;72.86
76858;BME280;65830;0.000;0.000;2023-03-04T04:01:04;99861.28;;;4.80;72.60
76858;BME280;65830;0.000;0.000;2023-03-04T04:03:29;99858.13;;;4.74;73.14
76858;BME280;65830;0.000;0.000;2023-03-04T04:05:55;99859.72;;;4.77;73.34
76858;BME280;65830;0.000;0.000;2023-03-04T04:08:20;99857.00;;;4.78;72.98
76858;BME280;65830;0.000;0.000;2023-03-04T04:10:46;99860.75;;;4.74;72.95
76858;BME280;65830;0.000;0.000;2023-03-04T04:13:11;99850.25;;;4.74;73.06
76858;BME280;65830;0.000;0.000;2023-03-04T04:15:37;99854.94;;;4.69;73.21
76858;BME280;65830;0.000;0.000;2023-03-04T04:18:03;99854.94;;;4.69;72.82
76858;BME280;65830;0.000;0.000;2023-03-04T04:20:29;99860.00;;;4.72;73.03
76858;BME280;65830;0.000;0.000;2023-03-04T04:22:54;99862.25;;;4.78;73.35
76858;BME280;65830;0.000;0.000;2023-03-04T04:25:20;99861.94;;;4.83;72.65
76858;BME280;65830;0.000;0.000;2023-03-04T04:27:45;99861.84;;;4.85;72.65
76858;BME280;65830;0.000;0.000;2023-03-04T04:30:11;99863.75;;;4.83;73.08
76858;BME280;65830;0.000;0.000;2023-03-04T04:32:36;99875.38;;;4.78;73.05
76858;BME280;65830;0.000;0.000;2023-03-04T04:35:02;99876.13;;;4.81;72.74
76858;BME280;65830;0.000;0.000;2023-03-04T04:37:27;99875.38;;;4.78;73.05
76858;BME280;65830;0.000;0.000;2023-03-04T04:39:53;99878.75;;;4.81;72.73
76858;BME280;65830;0.000;0.000;2023-03-04T04:42:20;99871.81;;;4.80;72.89
76858;BME280;65830;0.000;0.000;2023-03-04T04:44:45;99878.97;;;4.63;72.73
76858;BME280;65830;0.000;0.000;2023-03-04T04:47:11;99865.84;;;4.63;73.61
76858;BME280;65830;0.000;0.000;2023-03-04T04:49:36;99865.75;;;4.65;73.04
76858;BME280;65830;0.000;0.000;2023-03-04T04:52:02;99873.53;;;4.66;73.16
76858;BME280;65830;0.000;0.000;2023-03-04T04:54:28;99878.97;;;4.63;73.93
76858;BME280;65830;0.000;0.000;2023-03-04T04:56:53;99890.69;;;4.57;73.87
76858;BME280;65830;0.000;0.000;2023-03-04T04:59:19;99888.38;;;4.53;73.77
76858;BME280;65830;0.000;0.000;2023-03-04T05:01:44;99888.66;;;4.48;73.31
76858;BME280;65830;0.000;0.000;2023-03-04T05:04:10;99891.56;;;4.44;73.30
76858;BME280;65830;0.000;0.000;2023-03-04T05:06:35;99887.63;;;4.51;73.51
76858;BME280;65830;0.000;0.000;2023-03-04T05:09:01;99898.88;;;4.53;73.32
76858;BME280;65830;0.000;0.000;2023-03-04T05:11:26;99895.81;;;4.46;72.81
76858;BME280;65830;0.000;0.000;2023-03-04T05:13:52;99894.75;;;4.34;73.45
76858;BME280;65830;0.000;0.000;2023-03-04T05:16:17;99899.44;;;4.29;73.72
76858;BME280;65830;0.000;0.000;2023-03-04T05:18:43;99892.69;;;4.25;73.55
76858;BME280;65830;0.000;0.000;2023-03-04T05:21:09;99906.66;;;4.26;73.53
76858;BME280;65830;0.000;0.000;2023-03-04T05:23:36;99899.53;;;4.28;73.91
76858;BME280;65830;0.000;0.000;2023-03-04T05:26:02;99897.78;;;4.28;73.71
76858;BME280;65830;0.000;0.000;2023-03-04T05:28:28;99895.91;;;4.30;73.89
76858;BME280;65830;0.000;0.000;2023-03-04T05:30:53;99898.88;;;4.38;73.73
76858;BME280;65830;0.000;0.000;2023-03-04T05:33:19;99915.03;;;4.32;73.89
76858;BME280;65830;0.000;0.000;2023-03-04T05:35:45;99910.91;;;4.28;74.38
76858;BME280;65830;0.000;0.000;2023-03-04T05:38:13;99899.16;;;4.34;73.97
76858;BME280;65830;0.000;0.000;2023-03-04T05:40:39;99901.91;;;4.32;73.86
76858;BME280;65830;0.000;0.000;2023-03-04T05:43:05;99888.75;;;4.47;75.03
76858;BME280;65830;0.000;0.000;2023-03-04T05:45:30;99891.84;;;4.53;74.74
76858;BME280;65830;0.000;0.000;2023-03-04T05:47:56;99902.44;;;4.52;73.54
76858;BME280;65830;0.000;0.000;2023-03-04T05:50:21;99904.88;;;4.55;73.55
76858;BME280;65830;0.000;0.000;2023-03-04T05:52:47;99909.94;;;4.44;73.76
76858;BME280;65830;0.000;0.000;2023-03-04T05:55:13;99927.78;;;4.38;73.76
76858;BME280;65830;0.000;0.000;2023-03-04T05:57:39;99913.91;;;4.36;74.15
76858;BME280;65830;0.000;0.000;2023-03-04T06:00:05;99897.94;;;4.40;74.21
76858;BME280;65830;0.000;0.000;2023-03-04T06:02:38;99912.94;;;4.37;74.26
76858;BME280;65830;0.000;0.000;2023-03-04T06:05:03;99918.03;;;4.41;73.74
76858;BME280;65830;0.000;0.000;2023-03-04T06:07:29;99925.53;;;4.32;73.69
76858;BME280;65830;0.000;0.000;2023-03-04T06:09:55;99922.16;;;4.30;74.19
76858;BME280;65830;0.000;0.000;2023-03-04T06:12:20;99915.41;;;4.26;74.64
76858;BME280;65830;0.000;0.000;2023-03-04T06:14:46;99922.91;;;4.32;74.84
76858;BME280;65830;0.000;0.000;2023-03-04T06:17:11;99923.28;;;4.26;74.86
76858;BME280;65830;0.000;0.000;2023-03-04T06:19:37;99929.16;;;4.30;75.25
76858;BME280;65830;0.000;0.000;2023-03-04T06:22:03;99928.72;;;4.37;74.81
76858;BME280;65830;0.000;0.000;2023-03-04T06:24:28;99930.78;;;4.47;74.98
76858;BME280;65830;0.000;0.000;2023-03-04T06:26:54;99929.00;;;4.47;74.21
76858;BME280;65830;0.000;0.000;2023-03-04T06:29:20;99935.50;;;4.56;73.89
76858;BME280;65830;0.000;0.000;2023-03-04T06:31:45;99931.63;;;4.62;74.08
76858;BME280;65830;0.000;0.000;2023-03-04T06:34:11;99940.38;;;4.62;74.10
76858;BME280;65830;0.000;0.000;2023-03-04T06:36:36;99934.75;;;4.54;74.85
76858;BME280;65830;0.000;0.000;2023-03-04T06:39:02;99944.22;;;4.56;74.52
76858;BME280;65830;0.000;0.000;2023-03-04T06:41:28;99943.75;;;4.64;74.80
76858;BME280;65830;0.000;0.000;2023-03-04T06:43:53;99946.84;;;4.71;74.07
76858;BME280;65830;0.000;0.000;2023-03-04T06:46:19;99949.56;;;4.84;74.38
76858;BME280;65830;0.000;0.000;2023-03-04T06:48:44;99943.63;;;4.94;73.96
76858;BME280;65830;0.000;0.000;2023-03-04T06:51:10;99940.78;;;5.12;73.94
76858;BME280;65830;0.000;0.000;2023-03-04T06:53:36;99952.84;;;5.29;72.72
76858;BME280;65830;0.000;0.000;2023-03-04T06:56:01;99949.72;;;5.36;73.00
76858;BME280;65830;0.000;0.000;2023-03-04T06:58:27;99946.22;;;5.50;72.72
76858;BME280;65830;0.000;0.000;2023-03-04T07:00:52;99951.72;;;5.60;72.00
76858;BME280;65830;0.000;0.000;2023-03-04T07:03:18;99957.00;;;5.60;72.49
76858;BME280;65830;0.000;0.000;2023-03-04T07:05:43;99955.75;;;5.66;71.88
76858;BME280;65830;0.000;0.000;2023-03-04T07:08:09;99946.63;;;5.71;71.74
76858;BME280;65830;0.000;0.000;2023-03-04T07:10:34;99948.63;;;5.81;71.81
76858;BME280;65830;0.000;0.000;2023-03-04T07:13:00;99957.91;;;5.86;71.81
76858;BME280;65830;0.000;0.000;2023-03-04T07:15:26;99954.19;;;6.03;71.45
76858;BME280;65830;0.000;0.000;2023-03-04T07:17:51;99955.69;;;6.07;71.08
76858;BME280;65830;0.000;0.000;2023-03-04T07:20:17;99956.09;;;6.14;70.64
76858;BME280;65830;0.000;0.000;2023-03-04T07:22:43;99953.16;;;6.19;71.14
76858;BME280;65830;0.000;0.000;2023-03-04T07:25:08;99951.69;;;6.27;70.54
76858;BME280;65830;0.000;0.000;2023-03-04T07:27:34;99944.44;;;6.31;70.58
76858;BME280;65830;0.000;0.000;2023-03-04T07:29:59;99944.34;;;6.32;70.60
76858;BME280;65830;0.000;0.000;2023-03-04T07:32:24;99945.56;;;6.40;70.90
76858;BME280;65830;0.000;0.000;2023-03-04T07:34:50;99934.91;;;6.54;70.12
76858;BME280;65830;0.000;0.000;2023-03-04T07:37:15;99944.09;;;6.61;70.24
76858;BME280;65830;0.000;0.000;2023-03-04T07:39:41;99941.03;;;6.67;69.93
76858;BME280;65830;0.000;0.000;2023-03-04T07:42:06;99941.13;;;6.66;70.18
76858;BME280;65830;0.000;0.000;2023-03-04T07:44:38;99934.28;;;6.76;69.74
76858;BME280;65830;0.000;0.000;2023-03-04T07:47:03;99933.56;;;6.74;69.45
76858;BME280;65830;0.000;0.000;2023-03-04T07:49:28;99930.88;;;6.87;69.41
76858;BME280;65830;0.000;0.000;2023-03-04T07:51:54;99928.16;;;6.88;70.08
76858;BME280;65830;0.000;0.000;2023-03-04T07:54:19;99924.63;;;7.01;69.38
76858;BME280;65830;0.000;0.000;2023-03-04T07:56:45;99919.00;;;7.05;69.45
76858;BME280;65830;0.000;0.000;2023-03-04T07:59:10;99922.38;;;7.07;69.30
76858;BME280;65830;0.000;0.000;2023-03-04T08:01:36;99925.75;;;7.09;68.65
76858;BME280;65830;0.000;0.000;2023-03-04T08:04:02;99917.84;;;7.09;69.40
76858;BME280;65830;0.000;0.000;2023-03-04T08:06:28;99917.63;;;7.12;69.47
76858;BME280;65830;0.000;0.000;2023-03-04T08:08:55;99921.84;;;7.15;68.72
76858;BME280;65830;0.000;0.000;2023-03-04T08:11:21;99921.00;;;7.14;68.92
76858;BME280;65830;0.000;0.000;2023-03-04T08:13:47;99922.91;;;7.12;68.88
76858;BME280;65830;0.000;0.000;2023-03-04T08:16:16;99916.34;;;7.18;69.21
76858;BME280;65830;0.000;0.000;2023-03-04T08:18:42;99919.03;;;7.29;68.61
76858;BME280;65830;0.000;0.000;2023-03-04T08:21:09;99922.81;;;7.38;68.56
76858;BME280;65830;0.000;0.000;2023-03-04T08:23:35;99928.28;;;7.48;68.81
76858;BME280;65830;0.000;0.000;2023-03-04T08:26:04;99933.47;;;7.61;67.97
76858;BME280;65830;0.000;0.000;2023-03-04T08:28:29;99935.81;;;7.65;67.60
76858;BME280;65830;0.000;0.000;2023-03-04T08:30:55;99926.44;;;7.72;67.27
76858;BME280;65830;0.000;0.000;2023-03-04T08:33:20;99929.75;;;7.87;67.38
76858;BME280;65830;0.000;0.000;2023-03-04T08:35:46;99930.50;;;8.01;67.11
76858;BME280;65830;0.000;0.000;2023-03-04T08:38:11;99927.28;;;7.97;66.87
76858;BME280;65830;0.000;0.000;2023-03-04T08:40:37;99932.50;;;8.21;66.16
76858;BME280;65830;0.000;0.000;2023-03-04T08:43:02;99933.94;;;8.25;66.45
76858;BME280;65830;0.000;0.000;2023-03-04T08:45:28;99931.91;;;8.29;66.62
76858;BME280;65830;0.000;0.000;2023-03-04T08:47:53;99932.16;;;8.37;65.70
76858;BME280;65830;0.000;0.000;2023-03-04T08:50:19;99923.41;;;8.48;65.09
76858;BME280;65830;0.000;0.000;2023-03-04T08:52:44;99932.69;;;8.53;65.36
76858;BME280;65830;0.000;0.000;2023-03-04T08:55:10;99931.22;;;8.72;64.85
76858;BME280;65830;0.000;0.000;2023-03-04T08:57:35;99924.84;;;8.86;64.68
76858;BME280;65830;0.000;0.000;2023-03-04T09:00:01;99928.72;;;8.93;63.84
76858;BME280;65830;0.000;0.000;2023-03-04T09:02:26;99925.78;;;9.07;63.64
76858;BME280;65830;0.000;0.000;2023-03-04T09:04:52;99907.25;;;9.30;63.18
76858;BME280;65830;0.000;0.000;2023-03-04T09:07:17;99904.78;;;9.49;62.52
76858;BME280;65830;0.000;0.000;2023-03-04T09:09:42;99904.75;;;9.82;61.97
76858;BME280;65830;0.000;0.000;2023-03-04T09:12:08;99902.94;;;10.03;61.33
76858;BME280;65830;0.000;0.000;2023-03-04T09:14:33;99898.53;;;10.13;60.82
76858;BME280;65830;0.000;0.000;2023-03-04T09:17:00;99894.25;;;10.22;60.81
76858;BME280;65830;0.000;0.000;2023-03-04T09:19:26;99896.38;;;10.28;60.56
76858;BME280;65830;0.000;0.000;2023-03-04T09:21:52;99890.56;;;10.34;60.27
76858;BME280;65830;0.000;0.000;2023-03-04T09:24:19;99894.69;;;10.39;59.66
76858;BME280;65830;0.000;0.000;2023-03-04T09:26:48;99895.22;;;10.42;59.99
76858;BME280;65830;0.000;0.000;2023-03-04T09:29:13;99891.03;;;10.40;60.05
76858;BME280;65830;0.000;0.000;2023-03-04T09:31:39;99882.91;;;10.31;60.69
76858;BME280;65830;0.000;0.000;2023-03-04T09:34:04;99887.59;;;10.49;60.07
76858;BME280;65830;0.000;0.000;2023-03-04T09:36:30;99884.59;;;10.63;59.58
76858;BME280;65830;0.000;0.000;2023-03-04T09:38:58;99886.06;;;10.87;59.03
76858;BME280;65830;0.000;0.000;2023-03-04T09:41:25;99883.88;;;11.11;58.50
76858;BME280;65830;0.000;0.000;2023-03-04T09:43:55;99886.69;;;11.10;58.01
76858;BME280;65830;0.000;0.000;2023-03-04T09:46:40;99883.63;;;11.15;58.35
76858;BME280;65830;0.000;0.000;2023-03-04T09:49:09;99878.59;;;11.31;58.02
76858;BME280;65830;0.000;0.000;2023-03-04T09:56:44;99872.84;;;11.84;56.58
76858;BME280;65830;0.000;0.000;2023-03-04T10:01:44;99867.00;;;11.90;55.76
76858;BME280;65830;0.000;0.000;2023-03-04T10:04:12;99867.28;;;11.87;56.05
76858;BME280;65830;0.000;0.000;2023-03-04T10:06:39;99865.59;;;11.96;56.14
76858;BME280;65830;0.000;0.000;2023-03-04T10:11:33;99863.22;;;11.93;55.90
76858;BME280;65830;0.000;0.000;2023-03-04T10:16:45;99857.19;;;11.81;56.39
76858;BME280;65830;0.000;0.000;2023-03-04T10:21:42;99856.22;;;11.53;56.84
76858;BME280;65830;0.000;0.000;2023-03-04T10:24:13;99859.56;;;11.36;57.13
76858;BME280;65830;0.000;0.000;2023-03-04T10:26:38;99852.47;;;11.36;57.08
76858;BME280;65830;0.000;0.000;2023-03-04T10:29:07;99843.25;;;11.40;56.47
76858;BME280;65830;0.000;0.000;2023-03-04T10:31:35;99839.59;;;11.31;55.92
76858;BME280;65830;0.000;0.000;2023-03-04T10:34:04;99837.22;;;11.19;56.43
76858;BME280;65830;0.000;0.000;2023-03-04T10:38:56;99826.28;;;11.22;56.92
76858;BME280;65830;0.000;0.000;2023-03-04T10:41:23;99811.34;;;11.21;57.94
76858;BME280;65830;0.000;0.000;2023-03-04T10:43:59;99823.38;;;11.35;58.33
76858;BME280;65830;0.000;0.000;2023-03-04T10:46:25;99820.00;;;11.62;58.36
76858;BME280;65830;0.000;0.000;2023-03-04T10:48:51;99816.66;;;11.50;58.62
76858;BME280;65830;0.000;0.000;2023-03-04T10:51:18;99816.22;;;11.55;58.02
76858;BME280;65830;0.000;0.000;2023-03-04T10:53:44;99815.09;;;11.57;57.91
76858;BME280;65830;0.000;0.000;2023-03-04T11:01:39;99799.03;;;11.49;59.48
76858;BME280;65830;0.000;0.000;2023-03-04T11:04:10;99794.13;;;11.64;58.77
76858;BME280;65830;0.000;0.000;2023-03-04T11:06:41;99793.38;;;11.91;58.70
76858;BME280;65830;0.000;0.000;2023-03-04T11:09:16;99781.84;;;12.10;58.98
76858;BME280;65830;0.000;0.000;2023-03-04T11:11:44;99782.47;;;12.31;57.74
76858;BME280;65830;0.000;0.000;2023-03-04T11:14:16;99776.41;;;12.39;57.36
76858;BME280;65830;0.000;0.000;2023-03-04T11:16:51;99766.78;;;12.56;57.04
76858;BME280;65830;0.000;0.000;2023-03-04T11:19:17;99756.09;;;12.84;57.03
76858;BME280;65830;0.000;0.000;2023-03-04T11:21:44;99750.28;;;13.16;55.28
76858;BME280;65830;0.000;0.000;2023-03-04T11:24:13;99750.72;;;13.29;54.74
76858;BME280;65830;0.000;0.000;2023-03-04T11:26:42;99738.75;;;13.16;55.56
76858;BME280;65830;0.000;0.000;2023-03-04T11:31:59;99748.13;;;12.84;55.74
76858;BME280;65830;0.000;0.000;2023-03-04T11:37:11;99746.94;;;12.23;57.81
76858;BME280;65830;0.000;0.000;2023-03-04T11:39:48;99746.78;;;12.24;57.01
76858;BME280;65830;0.000;0.000;2023-03-04T11:42:20;99736.16;;;12.24;57.04
76858;BME280;65830;0.000;0.000;2023-03-04T11:44:47;99733.22;;;12.27;56.96
76858;BME280;65830;0.000;0.000;2023-03-04T11:55:10;99715.97;;;12.31;56.86
76858;BME280;65830;0.000;0.000;2023-03-04T12:10:49;99709.94;;;12.57;54.19
76858;BME280;65830;0.000;0.000;2023-03-04T12:18:38;99702.63;;;15.01;49.08
76858;BME280;65830;0.000;0.000;2023-03-04T12:31:42;99680.56;;;18.25;41.54
76858;BME280;65830;0.000;0.000;2023-03-04T12:39:24;99680.03;;;18.73;41.09
76858;BME280;65830;0.000;0.000;2023-03-04T12:44:29;99671.81;;;18.23;41.18
76858;BME280;65830;0.000;0.000;2023-03-04T12:49:34;99673.09;;;17.09;43.20
76858;BME280;65830;0.000;0.000;2023-03-04T12:54:42;99654.44;;;16.92;44.20
76858;BME280;65830;0.000;0.000;2023-03-04T12:57:16;99653.41;;;16.70;44.16
76858;BME280;65830;0.000;0.000;2023-03-04T12:59:45;99647.28;;;16.61;44.18
76858;BME280;65830;0.000;0.000;2023-03-04T13:10:11;99646.31;;;16.00;45.06
76858;BME280;65830;0.000;0.000;2023-03-04T13:12:47;99625.34;;;15.64;45.44
76858;BME280;65830;0.000;0.000;2023-03-04T13:15:16;99633.63;;;15.85;45.75
76858;BME280;65830;0.000;0.000;2023-03-04T13:17:43;99619.59;;;15.83;45.20
76858;BME280;65830;0.000;0.000;2023-03-04T13:20:12;99631.03;;;16.08;44.45
76858;BME280;65830;0.000;0.000;2023-03-04T13:28:16;99626.97;;;15.17;45.05
76858;BME280;65830;0.000;0.000;2023-03-04T13:30:41;99621.16;;;15.78;44.39
76858;BME280;65830;0.000;0.000;2023-03-04T13:43:37;99607.91;;;15.84;43.79
76858;BME280;65830;0.000;0.000;2023-03-04T13:51:24;99598.28;;;15.59;44.41
76858;BME280;65830;0.000;0.000;2023-03-04T13:56:29;99597.22;;;16.39;43.07
76858;BME280;65830;0.000;0.000;2023-03-04T14:01:34;99590.00;;;15.29;45.02
76858;BME280;65830;0.000;0.000;2023-03-04T14:04:01;99582.03;;;14.96;45.86
76858;BME280;65830;0.000;0.000;2023-03-04T14:06:27;99585.56;;;14.80;46.14
76858;BME280;65830;0.000;0.000;2023-03-04T14:08:53;99580.75;;;14.59;46.55
76858;BME280;65830;0.000;0.000;2023-03-04T14:13:51;99576.63;;;13.98;48.27
76858;BME280;65830;0.000;0.000;2023-03-04T14:16:20;99572.56;;;13.77;48.60
76858;BME280;65830;0.000;0.000;2023-03-04T14:18:55;99579.22;;;13.81;50.69
76858;BME280;65830;0.000;0.000;2023-03-04T14:21:20;99571.19;;;13.65;49.09
76858;BME280;65830;0.000;0.000;2023-03-04T14:23:46;99573.34;;;13.61;49.21
76858;BME280;65830;0.000;0.000;2023-03-04T14:26:23;99570.53;;;13.71;49.45
76858;BME280;65830;0.000;0.000;2023-03-04T14:28:50;99566.91;;;13.80;48.85
76858;BME280;65830;0.000;0.000;2023-03-04T14:31:17;99574.41;;;13.85;49.01
76858;BME280;65830;0.000;0.000;2023-03-04T14:33:44;99558.63;;;13.92;48.72
76858;BME280;65830;0.000;0.000;2023-03-04T14:36:14;99557.03;;;13.64;48.80
76858;BME280;65830;0.000;0.000;2023-03-04T14:38:39;99547.34;;;13.29;49.63
76858;BME280;65830;0.000;0.000;2023-03-04T14:41:08;99547.44;;;13.45;49.94
76858;BME280;65830;0.000;0.000;2023-03-04T14:43:39;99543.84;;;13.63;49.29
76858;BME280;65830;0.000;0.000;2023-03-04T14:46:06;99545.56;;;13.72;49.42
76858;BME280;65830;0.000;0.000;2023-03-04T14:48:36;99547.63;;;14.11;48.64
76858;BME280;65830;0.000;0.000;2023-03-04T14:51:02;99539.47;;;14.29;48.18
76858;BME280;65830;0.000;0.000;2023-03-04T14:53:28;99534.69;;;14.65;47.01
76858;BME280;65830;0.000;0.000;2023-03-04T14:58:24;99534.78;;;15.05;46.33
76858;BME280;65830;0.000;0.000;2023-03-04T15:01:01;99537.50;;;14.80;46.44
76858;BME280;65830;0.000;0.000;2023-03-04T15:03:28;99529.47;;;14.56;47.74
76858;BME280;65830;0.000;0.000;2023-03-04T15:05:54;99527.16;;;14.36;48.20
76858;BME280;65830;0.000;0.000;2023-03-04T15:08:27;99527.97;;;14.28;49.06
76858;BME280;65830;0.000;0.000;2023-03-04T15:10:54;99518.31;;;14.27;49.43
76858;BME280;65830;0.000;0.000;2023-03-04T15:13:35;99520.97;;;14.36;49.14
76858;BME280;65830;0.000;0.000;2023-03-04T15:16:01;99521.31;;;14.24;49.55
76858;BME280;65830;0.000;0.000;2023-03-04T15:18:27;99519.97;;;14.12;49.76
76858;BME280;65830;0.000;0.000;2023-03-04T15:20:58;99517.13;;;14.05;49.93
76858;BME280;65830;0.000;0.000;2023-03-04T15:23:24;99508.25;;;13.88;50.16
76858;BME280;65830;0.000;0.000;2023-03-04T15:25:51;99507.03;;;13.66;50.38